createdAt,value
2022-12-28T00:03:29.571Z,20.27
2022-12-28T00:08:31.474Z,27.20
2022-12-28T00:13:35.431Z,19.25
2022-12-28T00:18:37.597Z,24.07
2022-12-28T00:23:39.340Z,18.52
2022-12-28T00:28:42.476Z,18.15
2022-12-28T00:33:44.613Z,26.40
2022-12-28T00:38:46.370Z,19.30
2022-12-28T00:43:49.478Z,21.65
2022-12-28T00:48:51.217Z,19.67
2022-12-28T00:53:52.921Z,19.10
2022-12-28T00:58:58.197Z,20.20
2022-12-28T01:04:00.255Z,19.80
2022-12-28T01:09:02.051Z,20.65
2022-12-28T01:14:05.131Z,20.52
2022-12-28T01:19:07.468Z,19.02
2022-12-28T01:24:10.306Z,20.33
2022-12-28T01:29:13.350Z,24.05
2022-12-28T01:34:15.050Z,24.30
2022-12-28T01:39:16.736Z,28.92
2022-12-28T01:44:40.763Z,24.00
2022-12-28T01:49:49.524Z,26.02
2022-12-28T01:54:56.346Z,24.37
2022-12-28T02:00:02.094Z,20.75
2022-12-28T02:05:04.682Z,28.45
2022-12-28T02:10:43.455Z,25.77
2022-12-28T02:15:31.527Z,22.20
2022-12-28T02:20:41.859Z,25.08
2022-12-28T02:26:31.685Z,28.05
2022-12-28T02:31:40.099Z,23.90
2022-12-28T02:36:47.305Z,23.95
2022-12-28T02:41:51.496Z,22.65
2022-12-28T02:46:54.600Z,22.20
2022-12-28T02:52:07.341Z,21.87
2022-12-28T02:57:23.510Z,26.17
2022-12-28T03:02:39.516Z,19.87
2022-12-28T03:07:50.423Z,20.75
2022-12-28T03:12:58.329Z,19.85
2022-12-28T03:18:06.754Z,22.83
2022-12-28T03:23:11.136Z,19.33
2022-12-28T03:28:16.536Z,20.10
2022-12-28T03:33:19.677Z,19.42
2022-12-28T03:38:27.008Z,24.15
2022-12-28T03:43:35.718Z,26.77
2022-12-28T03:48:39.756Z,19.10
2022-12-28T03:53:43.917Z,18.37
2022-12-28T03:58:46.133Z,19.73
2022-12-28T04:03:49.186Z,18.90
2022-12-28T04:08:50.939Z,23.70
2022-12-28T04:13:52.768Z,20.83
2022-12-28T04:18:56.168Z,19.15
2022-12-28T04:23:57.904Z,21.48
2022-12-28T04:28:59.684Z,19.35
2022-12-28T04:34:02.762Z,20.15
2022-12-28T04:39:04.508Z,19.33
2022-12-28T04:44:06.436Z,19.98
2022-12-28T04:49:09.505Z,18.55
2022-12-28T04:54:12.498Z,18.62
2022-12-28T04:59:14.200Z,18.30
2022-12-28T05:04:17.312Z,17.60
2022-12-28T05:09:19.019Z,17.58
2022-12-28T05:14:20.708Z,17.33
2022-12-28T05:19:23.719Z,18.02
2022-12-28T05:24:25.367Z,17.02
2022-12-28T05:29:27.108Z,17.55
2022-12-28T05:34:30.162Z,16.15
2022-12-28T05:39:31.808Z,17.98
2022-12-28T05:44:33.457Z,16.77
2022-12-28T05:49:36.578Z,19.48
2022-12-28T05:54:38.278Z,15.75
2022-12-28T05:59:39.940Z,17.45
2022-12-28T06:04:42.933Z,14.98
2022-12-28T06:09:44.625Z,15.77
2022-12-28T06:14:46.394Z,17.05
2022-12-28T06:19:49.423Z,16.05
2022-12-28T06:24:51.144Z,15.82
2022-12-28T06:29:52.788Z,16.17
2022-12-28T06:34:55.948Z,15.45
2022-12-28T06:39:57.609Z,16.70
2022-12-28T06:44:59.245Z,16.85
2022-12-28T06:50:02.489Z,17.05
2022-12-28T06:55:04.915Z,16.58
2022-12-28T07:00:07.937Z,20.48
2022-12-28T07:05:11.131Z,16.25
2022-12-28T07:10:12.876Z,16.87
2022-12-28T07:15:14.601Z,15.18
2022-12-28T07:20:17.984Z,14.45
2022-12-28T07:25:19.880Z,16.50
2022-12-28T07:30:21.587Z,15.35
2022-12-28T07:35:24.592Z,15.55
2022-12-28T07:40:26.453Z,15.68
2022-12-28T07:45:28.206Z,16.33
2022-12-28T07:50:37.505Z,15.10
2022-12-28T07:55:39.628Z,15.18
2022-12-28T08:00:41.295Z,15.73
2022-12-28T08:05:44.367Z,14.48
2022-12-28T08:10:45.977Z,15.13
2022-12-28T08:15:53.988Z,14.85
2022-12-28T08:21:01.125Z,14.48
2022-12-28T08:26:07.551Z,15.02
2022-12-28T08:31:11.278Z,14.50
2022-12-28T08:36:14.791Z,14.30
2022-12-28T08:41:19.163Z,15.55
2022-12-28T08:46:22.525Z,16.73
2022-12-28T08:51:29.744Z,15.02
2022-12-28T08:56:33.497Z,14.87
2022-12-28T09:01:43.555Z,13.77
2022-12-28T09:06:48.963Z,14.45
2022-12-28T09:11:50.656Z,13.30
2022-12-28T09:16:53.436Z,14.25
2022-12-28T09:21:56.476Z,15.80
2022-12-28T09:26:58.108Z,14.10
2022-12-28T09:31:59.820Z,14.05
2022-12-28T09:37:03.331Z,13.68
2022-12-28T09:42:11.302Z,13.38
2022-12-28T09:47:24.893Z,14.13
2022-12-28T09:52:31.154Z,15.10
2022-12-28T09:57:39.296Z,13.62
2022-12-28T10:02:41.670Z,13.15
2022-12-28T10:07:44.804Z,15.63
2022-12-28T10:12:47.588Z,13.48
2022-12-28T10:17:49.388Z,13.60
2022-12-28T10:22:55.525Z,14.52
2022-12-28T10:27:57.997Z,13.32
2022-12-28T10:33:03.077Z,13.48
2022-12-28T10:38:20.934Z,13.43
2022-12-28T10:43:22.725Z,13.02
2022-12-28T10:48:31.534Z,13.80
2022-12-28T10:53:42.392Z,14.32
2022-12-28T10:58:46.060Z,12.27
2022-12-28T11:03:59.954Z,12.80
2022-12-28T11:09:06.864Z,12.65
2022-12-28T11:14:16.148Z,12.73
2022-12-28T11:19:17.883Z,13.77
2022-12-28T11:24:24.206Z,13.38
2022-12-28T11:29:25.899Z,13.32
2022-12-28T11:34:29.723Z,12.37
2022-12-28T11:39:45.076Z,12.93
2022-12-28T11:49:54.996Z,14.77
2022-12-28T11:54:59.997Z,12.55
2022-12-28T12:00:39.462Z,13.38
2022-12-28T12:05:51.684Z,12.40
2022-12-28T12:11:21.599Z,12.40
2022-12-28T12:16:28.956Z,11.68
2022-12-28T12:21:34.740Z,14.38
2022-12-28T12:26:40.645Z,12.52
2022-12-28T12:31:46.169Z,12.13
2022-12-28T12:37:30.859Z,12.63
2022-12-28T12:42:43.175Z,12.15
2022-12-28T12:48:13.498Z,12.93
2022-12-28T12:53:28.926Z,12.48
2022-12-28T13:03:41.850Z,11.55
2022-12-28T13:08:48.180Z,12.63
2022-12-28T13:13:52.972Z,11.75
2022-12-28T13:18:56.627Z,13.13
2022-12-28T13:23:58.371Z,13.00
2022-12-28T13:29:08.178Z,12.00
2022-12-28T13:34:17.705Z,12.68
2022-12-28T13:39:20.272Z,13.73
2022-12-28T13:44:30.808Z,13.38
2022-12-28T13:49:37.004Z,12.37
2022-12-28T13:54:40.099Z,12.68
2022-12-28T13:59:44.227Z,13.35
2022-12-28T14:04:54.318Z,12.55
2022-12-28T14:09:56.789Z,13.02
2022-12-28T14:15:00.447Z,12.50
2022-12-28T14:20:02.472Z,12.68
2022-12-28T14:25:07.117Z,13.50
2022-12-28T14:30:22.570Z,12.85
2022-12-28T14:35:27.041Z,12.55
2022-12-28T14:40:31.170Z,13.00
2022-12-28T14:46:04.935Z,12.07
2022-12-28T14:51:22.449Z,11.80
2022-12-28T14:56:24.223Z,13.98
2022-12-28T15:01:40.335Z,14.15
2022-12-28T15:06:42.222Z,13.13
2022-12-28T15:11:43.969Z,13.13
2022-12-28T15:16:50.406Z,13.68
2022-12-28T15:21:52.256Z,13.48
2022-12-28T15:26:54.068Z,13.35
2022-12-28T15:31:57.162Z,14.65
2022-12-28T15:36:58.881Z,14.00
2022-12-28T15:42:00.680Z,13.57
2022-12-28T15:47:04.056Z,14.02
2022-12-28T15:52:05.917Z,13.43
2022-12-28T15:57:07.641Z,12.80
2022-12-28T16:02:11.882Z,13.93
2022-12-28T16:07:13.903Z,12.37
2022-12-28T16:12:15.591Z,14.07
2022-12-28T16:17:18.877Z,12.50
2022-12-28T16:22:20.728Z,12.68
2022-12-28T16:27:22.587Z,12.55
2022-12-28T16:32:25.903Z,12.27
2022-12-28T16:37:27.736Z,13.15
2022-12-28T16:42:29.497Z,12.32
2022-12-28T16:47:32.897Z,13.75
2022-12-28T16:52:34.601Z,18.67
2022-12-28T16:57:36.395Z,12.75
2022-12-28T17:02:39.624Z,13.15
2022-12-28T17:07:41.787Z,13.27
2022-12-28T17:12:43.474Z,13.20
2022-12-28T17:17:46.490Z,13.90
2022-12-28T17:22:48.143Z,13.13
2022-12-28T17:27:49.839Z,12.63
2022-12-28T17:32:53.071Z,13.02
2022-12-28T17:37:54.795Z,13.82
2022-12-28T17:42:56.473Z,12.63
2022-12-28T17:47:59.525Z,12.98
2022-12-28T17:53:01.217Z,13.50
2022-12-28T17:58:03.435Z,12.35
2022-12-28T18:03:06.683Z,12.57
2022-12-28T18:08:08.635Z,13.85
2022-12-28T18:13:10.461Z,13.55
2022-12-28T18:18:15.151Z,13.70
2022-12-28T18:23:16.814Z,13.10
2022-12-28T18:28:18.545Z,13.38
2022-12-28T18:33:21.779Z,12.35
2022-12-28T18:38:23.641Z,13.25
2022-12-28T18:43:25.921Z,13.65
2022-12-28T18:48:30.268Z,12.35
2022-12-28T18:53:32.199Z,13.90
2022-12-28T18:58:36.152Z,14.43
2022-12-28T19:03:39.627Z,13.50
2022-12-28T19:08:41.713Z,13.65
2022-12-28T19:13:43.837Z,14.10
2022-12-28T19:18:47.620Z,13.30
2022-12-28T19:23:50.602Z,12.40
2022-12-28T19:28:52.987Z,14.27
2022-12-28T19:33:56.376Z,14.10
2022-12-28T19:38:58.422Z,13.15
2022-12-28T19:44:00.236Z,13.90
2022-12-28T19:49:04.484Z,14.45
2022-12-28T19:54:06.293Z,15.20
2022-12-28T19:59:08.054Z,14.45
2022-12-28T20:04:13.811Z,12.68
2022-12-28T20:09:16.023Z,14.02
2022-12-28T20:14:23.307Z,13.40
2022-12-28T20:19:28.367Z,14.30
2022-12-28T20:24:30.099Z,15.25
2022-12-28T20:29:31.792Z,13.88
2022-12-28T20:34:34.995Z,14.25
2022-12-28T20:39:37.901Z,13.52
2022-12-28T20:44:39.571Z,12.73
2022-12-28T20:49:42.717Z,12.93
2022-12-28T20:54:44.390Z,13.57
2022-12-28T20:59:46.119Z,13.27
2022-12-28T21:04:49.125Z,13.82
2022-12-28T21:09:50.922Z,13.65
2022-12-28T21:14:52.663Z,14.43
2022-12-28T21:19:55.715Z,13.05
2022-12-28T21:24:57.440Z,14.40
2022-12-28T21:29:59.120Z,13.68
2022-12-28T21:35:02.315Z,13.82
2022-12-28T21:40:07.194Z,14.65
2022-12-28T21:45:10.043Z,14.90
2022-12-28T21:50:13.429Z,16.65
2022-12-28T21:55:15.301Z,13.45
2022-12-28T22:00:17.276Z,14.40
2022-12-28T22:05:20.254Z,14.18
2022-12-28T22:10:21.915Z,15.65
2022-12-28T22:15:25.135Z,14.27
2022-12-28T22:20:29.698Z,14.00
2022-12-28T22:25:31.845Z,14.02
2022-12-28T22:30:34.825Z,14.05
2022-12-28T22:35:37.903Z,14.45
2022-12-28T22:40:39.695Z,14.55
2022-12-28T22:45:41.374Z,13.55
2022-12-28T22:50:44.629Z,13.13
2022-12-28T22:55:55.781Z,13.85
2022-12-28T23:01:05.854Z,14.00
2022-12-28T23:06:10.507Z,12.80
2022-12-28T23:11:14.568Z,12.83
2022-12-28T23:16:16.340Z,12.80
2022-12-28T23:21:21.396Z,13.85
2022-12-28T23:26:23.109Z,14.10
2022-12-28T23:31:24.935Z,12.85
2022-12-28T23:36:28.346Z,12.32
2022-12-28T23:41:30.077Z,12.82
2022-12-28T23:46:31.745Z,13.30
2022-12-28T23:51:34.862Z,12.37
2022-12-28T23:56:36.605Z,12.95
